Time;durP1;ratioP1;P1;durP2;ratioP2;P2;SDS_P1;SDS_P2;PMS_P1;PMS_P2;Temp;Humidity;BMP_temperature;BMP_pressure;BME280_temperature;BME280_humidity;BME280_pressure;Samples;Min_cycle;Max_cycle;Signal;HPM_P1;HPM_P2
2022/03/26 00:00:16;;;;;;;36.78;25.55;;;12.40;52.00;;;;;;5035670;28;20064;-72
2022/03/26 00:02:41;;;;;;;40.67;26.33;;;12.50;52.00;;;;;;5035674;28;20049;-71
2022/03/26 00:05:07;;;;;;;35.10;25.40;;;12.50;51.60;;;;;;5035801;28;20060;-72
2022/03/26 00:07:33;;;;;;;34.90;24.73;;;12.40;51.40;;;;;;5035743;28;20025;-72
2022/03/26 00:09:59;;;;;;;36.83;24.10;;;12.40;50.80;;;;;;5035640;28;20021;-72
2022/03/26 00:12:25;;;;;;;33.60;24.70;;;12.30;50.40;;;;;;5035478;28;20494;-71
2022/03/26 00:14:51;;;;;;;35.65;23.65;;;12.20;50.60;;;;;;5035594;28;20037;-73
2022/03/26 00:17:17;;;;;;;34.50;23.73;;;12.20;50.50;;;;;;5035811;28;20033;-74
2022/03/26 00:19:43;;;;;;;28.65;22.27;;;12.10;50.50;;;;;;5035782;28;20029;-72
2022/03/26 00:22:08;;;;;;;31.63;21.92;;;12.00;50.40;;;;;;5035553;28;20029;-72
2022/03/26 00:24:34;;;;;;;36.83;22.58;;;12.00;50.50;;;;;;5035491;28;20033;-72
2022/03/26 00:27:00;;;;;;;27.70;21.52;;;12.00;50.70;;;;;;5035409;28;20370;-72
2022/03/26 00:29:25;;;;;;;36.47;21.67;;;12.00;50.80;;;;;;5035478;28;20037;-72
2022/03/26 00:31:51;;;;;;;28.98;21.42;;;12.00;50.80;;;;;;5034886;28;20118;-72
2022/03/26 00:34:17;;;;;;;30.73;21.42;;;12.00;50.50;;;;;;5035135;28;20025;-72
2022/03/26 00:36:43;;;;;;;31.17;21.60;;;11.90;51.00;;;;;;5035271;28;20087;-72
2022/03/26 00:39:08;;;;;;;28.33;20.38;;;11.90;50.50;;;;;;5035034;28;20355;-73
2022/03/26 00:41:34;;;;;;;32.53;21.40;;;11.80;50.30;;;;;;5034938;28;20124;-72
2022/03/26 00:44:01;;;;;;;36.30;22.55;;;11.90;50.60;;;;;;5034926;28;20040;-73
2022/03/26 00:46:27;;;;;;;27.55;20.75;;;11.90;51.00;;;;;;5034733;28;20030;-73
2022/03/26 00:48:56;;;;;;;30.83;20.15;;;12.00;50.80;;;;;;5034825;28;20079;-72
2022/03/26 00:51:21;;;;;;;29.00;20.45;;;11.90;50.70;;;;;;5034700;28;20021;-71
2022/03/26 00:53:47;;;;;;;28.60;20.92;;;11.90;50.80;;;;;;5035043;28;20025;-72
2022/03/26 00:56:13;;;;;;;34.70;21.65;;;11.90;50.60;;;;;;5034753;28;20017;-72
2022/03/26 00:58:40;;;;;;;28.85;20.77;;;11.80;50.70;;;;;;5034611;28;20025;-72
2022/03/26 01:01:07;;;;;;;32.75;21.25;;;11.70;50.90;;;;;;5034555;28;20026;-71
2022/03/26 01:03:33;;;;;;;32.30;21.35;;;11.70;51.20;;;;;;5034542;28;20021;-72
2022/03/26 01:05:59;;;;;;;30.40;20.55;;;11.70;51.10;;;;;;5033333;28;20032;-72
2022/03/26 01:08:24;;;;;;;30.00;20.60;;;11.60;50.80;;;;;;5034507;28;20080;-71
2022/03/26 01:10:50;;;;;;;30.67;21.58;;;11.60;50.90;;;;;;5034502;28;20022;-71
2022/03/26 01:13:16;;;;;;;31.23;21.02;;;11.50;51.00;;;;;;5034562;28;20550;-72
2022/03/26 01:15:42;;;;;;;29.63;20.67;;;11.40;51.30;;;;;;5034402;28;20128;-72
2022/03/26 01:18:09;;;;;;;31.42;20.70;;;11.40;51.40;;;;;;5034101;28;20459;-72
2022/03/26 01:20:36;;;;;;;32.92;21.83;;;11.40;51.60;;;;;;5034076;28;20026;-72
2022/03/26 01:23:01;;;;;;;28.58;20.60;;;11.50;51.70;;;;;;5034065;28;20068;-72
2022/03/26 01:25:27;;;;;;;25.67;19.80;;;11.50;51.60;;;;;;5034285;28;20257;-71
2022/03/26 01:27:53;;;;;;;27.05;19.42;;;11.50;51.50;;;;;;5034186;28;20030;-71
2022/03/26 01:30:18;;;;;;;28.08;19.10;;;11.40;51.10;;;;;;5033893;28;20108;-72
2022/03/26 01:32:44;;;;;;;27.45;20.15;;;11.30;51.00;;;;;;5033974;28;20048;-72
2022/03/26 01:35:11;;;;;;;28.00;19.15;;;11.30;51.80;;;;;;5033953;28;20052;-72
2022/03/26 01:37:37;;;;;;;25.50;19.83;;;11.30;51.60;;;;;;5033960;28;20109;-71
2022/03/26 01:40:05;;;;;;;27.73;19.23;;;11.30;51.50;;;;;;5033874;28;20017;-71
2022/03/26 01:42:31;;;;;;;25.85;20.40;;;11.20;51.50;;;;;;5031599;28;20053;-71
2022/03/26 01:44:57;;;;;;;26.45;20.33;;;11.20;51.40;;;;;;5033622;28;20029;-72
2022/03/26 01:47:23;;;;;;;29.90;20.88;;;11.20;51.50;;;;;;5033572;28;20037;-71
2022/03/26 01:49:51;;;;;;;29.60;20.27;;;11.20;51.20;;;;;;5032250;28;20036;-70
2022/03/26 01:52:17;;;;;;;28.63;19.42;;;11.20;51.20;;;;;;5033448;28;20042;-71
2022/03/26 01:54:43;;;;;;;36.17;21.17;;;11.10;51.20;;;;;;5033709;28;20053;-72
2022/03/26 01:57:10;;;;;;;26.70;20.48;;;11.10;51.40;;;;;;5033609;28;20120;-72
2022/03/26 01:59:38;;;;;;;30.00;21.85;;;11.00;51.80;;;;;;5033606;28;20438;-72
2022/03/26 02:02:05;;;;;;;29.15;21.83;;;11.00;52.30;;;;;;5033467;28;20108;-71
2022/03/26 02:04:31;;;;;;;34.25;23.75;;;11.00;52.50;;;;;;5033364;28;20105;-71
2022/03/26 02:06:56;;;;;;;39.45;25.63;;;11.00;53.20;;;;;;5033404;28;20060;-72
2022/03/26 02:09:22;;;;;;;35.97;26.00;;;10.90;53.70;;;;;;5033164;28;20048;-71
2022/03/26 02:11:48;;;;;;;33.42;26.20;;;10.90;54.40;;;;;;5033270;28;20060;-71
2022/03/26 02:14:14;;;;;;;34.13;26.45;;;10.90;54.60;;;;;;5033260;28;20030;-72
2022/03/26 02:16:42;;;;;;;35.40;26.90;;;10.90;55.40;;;;;;5033249;28;20022;-71
2022/03/26 02:19:09;;;;;;;40.20;27.90;;;10.80;55.70;;;;;;5033168;28;20096;-72
2022/03/26 02:21:37;;;;;;;41.63;28.58;;;10.80;56.20;;;;;;5031844;28;20025;-73
2022/03/26 02:24:05;;;;;;;36.72;27.80;;;10.80;56.70;;;;;;5033075;28;20475;-72
2022/03/26 02:26:31;;;;;;;39.42;28.35;;;10.80;56.70;;;;;;5033135;28;20457;-72
2022/03/26 02:29:07;;;;;;;35.72;27.92;;;10.80;57.10;;;;;;5033011;28;20390;-71
2022/03/26 02:31:33;;;;;;;38.90;29.45;;;10.80;57.50;;;;;;5031616;28;20033;-72
2022/03/26 02:33:59;;;;;;;37.50;28.92;;;10.80;57.70;;;;;;5032936;28;20448;-71
2022/03/26 02:36:25;;;;;;;37.42;28.75;;;10.70;57.70;;;;;;5032929;28;20060;-71
2022/03/26 02:38:50;;;;;;;33.97;27.58;;;10.80;57.90;;;;;;5032932;28;20470;-72
2022/03/26 02:41:16;;;;;;;34.92;28.45;;;10.80;58.00;;;;;;5032772;28;20451;-71
2022/03/26 02:43:42;;;;;;;32.30;26.65;;;10.70;58.20;;;;;;5032949;28;20022;-71
2022/03/26 02:46:08;;;;;;;34.25;27.02;;;10.60;58.20;;;;;;5031650;28;20044;-71
2022/03/26 02:48:35;;;;;;;35.53;26.40;;;10.60;58.20;;;;;;5033032;28;20049;-72
2022/03/26 02:51:01;;;;;;;35.78;25.60;;;10.60;58.10;;;;;;5032761;28;20033;-71
2022/03/26 02:53:27;;;;;;;32.13;25.27;;;10.50;57.90;;;;;;5032957;28;20029;-73
2022/03/26 02:55:53;;;;;;;29.92;23.70;;;10.40;57.90;;;;;;5032595;28;20100;-72
2022/03/26 02:58:19;;;;;;;32.97;24.30;;;10.40;57.50;;;;;;5032462;28;20033;-72
2022/03/26 03:00:45;;;;;;;32.58;23.17;;;10.50;57.50;;;;;;5032791;28;20024;-71
2022/03/26 03:03:12;;;;;;;32.20;24.00;;;10.50;57.60;;;;;;5032523;28;20057;-71
2022/03/26 03:05:37;;;;;;;30.15;23.25;;;10.50;57.50;;;;;;5032700;28;20049;-72
2022/03/26 03:08:04;;;;;;;29.83;24.17;;;10.50;57.50;;;;;;5032623;28;20057;-70
2022/03/26 03:10:30;;;;;;;31.10;23.17;;;10.50;57.40;;;;;;5032424;28;20021;-72
2022/03/26 03:12:56;;;;;;;29.33;23.20;;;10.60;57.40;;;;;;5032325;28;20037;-71
2022/03/26 03:15:22;;;;;;;30.48;23.67;;;10.60;57.30;;;;;;5032465;28;20100;-73
2022/03/26 03:17:49;;;;;;;32.97;24.50;;;10.60;57.40;;;;;;5032537;28;20111;-72
2022/03/26 03:20:15;;;;;;;32.42;24.35;;;10.60;57.30;;;;;;5032404;28;20028;-72
2022/03/26 03:22:43;;;;;;;28.60;23.75;;;10.60;57.00;;;;;;5031120;28;20037;-71
2022/03/26 03:25:10;;;;;;;30.20;23.63;;;10.50;57.10;;;;;;5032634;28;20461;-73
2022/03/26 03:27:36;;;;;;;30.98;23.63;;;10.50;57.10;;;;;;5033001;28;20037;-71
2022/03/26 03:30:04;;;;;;;28.80;24.05;;;10.50;57.20;;;;;;5032183;28;20028;-71
2022/03/26 03:32:29;;;;;;;32.47;23.95;;;10.40;56.90;;;;;;5032093;28;20085;-71
2022/03/26 03:34:56;;;;;;;36.08;23.73;;;10.40;57.20;;;;;;5030837;28;20020;-72
2022/03/26 03:37:23;;;;;;;30.20;23.52;;;10.30;57.50;;;;;;5032140;28;20056;-72
2022/03/26 03:39:49;;;;;;;28.80;23.05;;;10.30;56.90;;;;;;5032407;28;20101;-72
2022/03/26 03:42:14;;;;;;;31.05;23.33;;;10.30;57.00;;;;;;5032175;28;20461;-72
2022/03/26 03:44:40;;;;;;;36.15;25.58;;;10.30;57.00;;;;;;5032055;28;20383;-71
2022/03/26 03:47:06;;;;;;;31.42;24.13;;;10.20;57.00;;;;;;5031997;28;20124;-72
2022/03/26 03:49:32;;;;;;;31.45;24.13;;;10.20;57.40;;;;;;5031926;28;20026;-72
2022/03/26 03:51:58;;;;;;;29.27;23.38;;;10.20;57.30;;;;;;5031972;28;20372;-70
2022/03/26 03:54:25;;;;;;;34.35;23.27;;;10.20;57.30;;;;;;5032016;28;20076;-71
2022/03/26 03:56:51;;;;;;;30.13;24.35;;;10.20;57.20;;;;;;5031953;28;20025;-72
2022/03/26 03:59:16;;;;;;;32.47;24.63;;;10.30;57.10;;;;;;5032007;28;20018;-71
2022/03/26 04:01:42;;;;;;;30.30;23.65;;;10.40;57.00;;;;;;5031838;28;20033;-72
2022/03/26 04:04:08;;;;;;;29.73;24.70;;;10.30;56.90;;;;;;5032020;28;20034;-71
2022/03/26 04:06:33;;;;;;;30.58;24.35;;;10.20;57.10;;;;;;5034405;28;20025;-71
2022/03/26 04:08:59;;;;;;;37.00;24.27;;;10.30;57.30;;;;;;5035510;28;20029;-71
2022/03/26 04:11:25;;;;;;;28.38;23.23;;;10.30;57.30;;;;;;5035438;28;20037;-71
2022/03/26 04:13:53;;;;;;;34.47;23.48;;;10.30;57.10;;;;;;5035539;28;20029;-71
2022/03/26 04:16:23;;;;;;;29.58;23.35;;;10.30;57.00;;;;;;5035378;28;20029;-73
2022/03/26 04:18:50;;;;;;;28.02;21.20;;;10.20;56.80;;;;;;5035447;28;20025;-71
2022/03/26 04:21:16;;;;;;;27.33;21.77;;;10.20;56.90;;;;;;5035083;28;20025;-71
2022/03/26 04:23:42;;;;;;;31.80;22.30;;;10.10;56.70;;;;;;5035251;28;20524;-71
2022/03/26 04:26:09;;;;;;;30.40;20.80;;;10.10;56.50;;;;;;5035215;28;20053;-72
2022/03/26 04:28:35;;;;;;;30.67;21.33;;;10.10;56.10;;;;;;5035182;28;20041;-72
2022/03/26 04:31:01;;;;;;;27.98;20.45;;;10.10;56.30;;;;;;5035265;28;20025;-71
2022/03/26 04:33:27;;;;;;;26.30;19.92;;;10.10;56.30;;;;;;5035220;28;20063;-72
2022/03/26 04:35:53;;;;;;;29.42;20.10;;;10.10;56.30;;;;;;5033939;28;20049;-71
2022/03/26 04:38:19;;;;;;;23.73;19.55;;;10.10;56.20;;;;;;5035032;28;20068;-72
2022/03/26 04:40:46;;;;;;;27.23;20.27;;;10.10;56.30;;;;;;5035117;28;20017;-71
2022/03/26 04:43:11;;;;;;;26.30;19.63;;;10.10;55.80;;;;;;5034838;28;20053;-71
2022/03/26 04:45:37;;;;;;;29.35;19.23;;;10.10;55.80;;;;;;5035073;28;20068;-71
2022/03/26 04:48:03;;;;;;;26.85;19.20;;;10.10;55.50;;;;;;5035102;28;20068;-72
2022/03/26 04:50:29;;;;;;;25.13;18.20;;;10.10;55.70;;;;;;5034865;28;20032;-71
2022/03/26 04:52:55;;;;;;;25.83;19.13;;;10.10;55.40;;;;;;5034724;28;20033;-72
2022/03/26 04:55:21;;;;;;;24.20;18.33;;;10.10;55.30;;;;;;5034636;28;20536;-71
2022/03/26 04:57:48;;;;;;;23.45;18.65;;;10.10;55.20;;;;;;5034689;28;20033;-71
2022/03/26 05:00:16;;;;;;;28.48;19.23;;;10.10;55.20;;;;;;5034846;28;20079;-71
2022/03/26 05:02:42;;;;;;;22.75;18.48;;;10.10;55.10;;;;;;5034629;28;20036;-71
2022/03/26 05:05:09;;;;;;;25.63;19.48;;;10.20;55.30;;;;;;5034501;28;20037;-71
2022/03/26 05:07:47;;;;;;;25.77;17.88;;;10.10;54.90;;;;;;5034368;28;20112;-71
2022/03/26 05:10:13;;;;;;;28.13;19.92;;;10.20;55.20;;;;;;5034343;28;20067;-71
2022/03/26 05:12:39;;;;;;;27.13;19.23;;;10.10;55.10;;;;;;5034429;28;20029;-72
2022/03/26 05:15:05;;;;;;;29.67;19.35;;;10.10;55.10;;;;;;5034491;28;20022;-73
2022/03/26 05:17:31;;;;;;;25.65;19.27;;;10.10;55.10;;;;;;5033367;28;20040;-71
2022/03/26 05:19:56;;;;;;;25.85;18.45;;;10.10;55.10;;;;;;5034171;28;20109;-71
2022/03/26 05:22:22;;;;;;;25.88;18.30;;;10.10;54.80;;;;;;5034047;28;20033;-71
2022/03/26 05:24:48;;;;;;;23.80;18.88;;;10.20;54.70;;;;;;5034130;28;20489;-71
2022/03/26 05:27:13;;;;;;;28.20;19.77;;;10.20;54.80;;;;;;5034224;28;20025;-71
2022/03/26 05:29:39;;;;;;;26.45;19.30;;;10.20;54.60;;;;;;5032612;28;20022;-72
2022/03/26 05:32:06;;;;;;;27.45;18.67;;;10.10;55.00;;;;;;5033894;28;20037;-71
2022/03/26 05:34:32;;;;;;;25.75;20.33;;;10.10;54.90;;;;;;5033947;28;20106;-71
2022/03/26 05:36:58;;;;;;;26.30;19.98;;;10.10;55.00;;;;;;5033813;28;20021;-73
2022/03/26 05:39:24;;;;;;;23.40;18.83;;;10.10;55.00;;;;;;5034131;28;20072;-71
2022/03/26 05:41:50;;;;;;;26.45;20.25;;;10.20;55.30;;;;;;5033788;28;20124;-72
2022/03/26 05:44:16;;;;;;;28.63;20.73;;;10.30;55.10;;;;;;5033901;28;20514;-71
2022/03/26 05:46:42;;;;;;;26.50;19.95;;;10.30;55.10;;;;;;5033723;28;20091;-72
2022/03/26 05:49:09;;;;;;;27.45;20.60;;;10.20;55.60;;;;;;5033639;28;20033;-72
2022/03/26 05:51:34;;;;;;;34.10;21.10;;;10.20;55.10;;;;;;5033587;28;20040;-71
2022/03/26 05:54:00;;;;;;;25.77;19.42;;;10.20;55.00;;;;;;5033759;28;20026;-71
2022/03/26 05:56:26;;;;;;;25.38;19.75;;;10.30;55.00;;;;;;5033654;28;20096;-72
2022/03/26 05:58:52;;;;;;;26.38;19.52;;;10.30;54.90;;;;;;5032301;28;20025;-71
2022/03/26 06:01:17;;;;;;;28.55;20.00;;;10.40;54.70;;;;;;5034024;28;20021;-71
2022/03/26 06:03:43;;;;;;;27.20;19.92;;;10.40;54.60;;;;;;5033714;28;20061;-72
2022/03/26 06:06:09;;;;;;;29.73;19.52;;;10.50;54.20;;;;;;5033674;28;20017;-71
2022/03/26 06:08:35;;;;;;;28.77;20.13;;;10.60;54.40;;;;;;5033390;28;20087;-73
2022/03/26 06:11:01;;;;;;;28.73;19.73;;;10.80;54.00;;;;;;5033268;28;20467;-72
2022/03/26 06:13:26;;;;;;;24.75;19.20;;;10.80;53.70;;;;;;5032004;28;20065;-72
2022/03/26 06:15:52;;;;;;;25.52;17.67;;;11.00;53.50;;;;;;5033210;28;20466;-72
2022/03/26 06:18:18;;;;;;;24.35;18.58;;;11.20;52.70;;;;;;5033088;28;20036;-72
2022/03/26 06:20:43;;;;;;;27.25;19.15;;;11.30;52.70;;;;;;5033072;28;20014;-73
2022/03/26 06:23:09;;;;;;;25.95;18.20;;;11.40;52.20;;;;;;5033123;28;20041;-72
2022/03/26 06:25:36;;;;;;;25.05;18.52;;;11.50;52.00;;;;;;5033111;28;20026;-72
2022/03/26 06:28:01;;;;;;;26.90;17.70;;;11.60;51.50;;;;;;5032756;28;20033;-72
2022/03/26 06:30:27;;;;;;;25.65;17.90;;;11.70;51.50;;;;;;5032867;28;20029;-72
2022/03/26 06:32:53;;;;;;;25.63;18.20;;;11.90;50.50;;;;;;5031376;28;20033;-72
2022/03/26 06:35:19;;;;;;;23.55;17.10;;;12.00;49.70;;;;;;5032791;28;20017;-72
2022/03/26 06:37:45;;;;;;;24.15;17.27;;;12.00;48.80;;;;;;5033057;28;20029;-72
2022/03/26 06:40:11;;;;;;;29.13;18.38;;;11.90;48.70;;;;;;5032668;28;20060;-72
2022/03/26 06:42:36;;;;;;;23.80;17.13;;;12.00;49.10;;;;;;5032525;28;20048;-72
2022/03/26 06:45:03;;;;;;;28.80;17.25;;;12.10;48.40;;;;;;5032594;28;20025;-72
2022/03/26 06:47:30;;;;;;;25.55;17.95;;;12.20;48.10;;;;;;5032453;28;20026;-72
2022/03/26 06:49:55;;;;;;;22.55;16.60;;;12.40;48.30;;;;;;5032744;28;20060;-71
2022/03/26 06:52:23;;;;;;;23.95;17.30;;;12.60;47.80;;;;;;5032699;28;20461;-72
2022/03/26 06:54:49;;;;;;;23.73;16.80;;;12.70;47.20;;;;;;5032787;28;20448;-72
2022/03/26 06:57:15;;;;;;;24.92;16.42;;;12.90;47.00;;;;;;5032525;28;20427;-72
2022/03/26 06:59:41;;;;;;;22.80;17.23;;;13.10;47.10;;;;;;5032078;28;20052;-71
2022/03/26 07:02:07;;;;;;;25.58;17.88;;;13.20;46.70;;;;;;5032168;28;20025;-71
2022/03/26 07:04:32;;;;;;;22.52;18.38;;;13.30;46.70;;;;;;5031915;28;20018;-72
2022/03/26 07:06:58;;;;;;;22.75;17.27;;;13.30;46.00;;;;;;5032338;28;20364;-72
2022/03/26 07:09:24;;;;;;;23.63;18.00;;;13.40;46.20;;;;;;5032164;28;20101;-71
2022/03/26 07:11:51;;;;;;;25.05;16.98;;;13.40;45.80;;;;;;5032039;28;20029;-72
2022/03/26 07:14:17;;;;;;;22.35;16.95;;;13.50;45.90;;;;;;5032237;28;20210;-72
2022/03/26 07:16:44;;;;;;;24.63;16.10;;;13.60;45.50;;;;;;5032082;28;20017;-72
2022/03/26 07:19:10;;;;;;;23.92;16.73;;;13.60;45.50;;;;;;5032257;28;20037;-72
2022/03/26 07:21:37;;;;;;;20.40;15.93;;;13.90;45.70;;;;;;5032014;28;20560;-72
2022/03/26 07:24:04;;;;;;;18.65;15.20;;;14.00;45.40;;;;;;5031970;28;20037;-72
2022/03/26 07:26:30;;;;;;;25.15;16.45;;;14.20;44.80;;;;;;5032138;28;20371;-73
2022/03/26 07:28:56;;;;;;;26.13;16.13;;;14.30;44.60;;;;;;5031909;28;20084;-72
2022/03/26 07:31:23;;;;;;;24.20;16.98;;;14.40;44.60;;;;;;5031729;28;20057;-72
2022/03/26 07:33:49;;;;;;;22.92;16.17;;;14.50;44.60;;;;;;5032102;28;20059;-72
2022/03/26 07:36:15;;;;;;;24.48;17.15;;;14.50;44.60;;;;;;5032208;28;20049;-72
2022/03/26 07:38:42;;;;;;;22.45;16.90;;;14.60;44.40;;;;;;5031974;28;20048;-72
2022/03/26 07:41:08;;;;;;;23.77;17.20;;;14.70;44.50;;;;;;5032203;28;20025;-72
2022/03/26 07:43:34;;;;;;;24.92;17.00;;;14.70;44.40;;;;;;5035559;28;20087;-72
2022/03/26 07:46:00;;;;;;;22.60;17.30;;;14.80;44.20;;;;;;5035726;28;20524;-73
2022/03/26 07:48:25;;;;;;;27.77;17.65;;;14.90;44.00;;;;;;5035549;28;20033;-72
2022/03/26 07:50:51;;;;;;;25.88;17.33;;;14.90;44.00;;;;;;5034155;28;20032;-72
2022/03/26 07:53:17;;;;;;;21.77;17.95;;;15.00;44.20;;;;;;5035512;28;20038;-71
2022/03/26 07:55:43;;;;;;;25.38;17.23;;;15.10;43.90;;;;;;5035798;28;20025;-73
2022/03/26 07:58:09;;;;;;;28.88;16.55;;;15.20;43.80;;;;;;5035575;28;20456;-73
2022/03/26 08:00:35;;;;;;;24.38;17.25;;;15.20;43.60;;;;;;5035315;28;20021;-73
2022/03/26 08:03:01;;;;;;;21.52;17.13;;;15.30;43.70;;;;;;5035303;28;20384;-76
2022/03/26 08:05:27;;;;;;;23.65;16.65;;;15.30;43.70;;;;;;5035205;28;20495;-74
2022/03/26 08:07:53;;;;;;;27.90;18.70;;;15.30;43.60;;;;;;5035531;28;20021;-72
2022/03/26 08:10:18;;;;;;;24.60;17.42;;;15.40;44.00;;;;;;5035313;28;20034;-70
2022/03/26 08:12:44;;;;;;;26.48;16.35;;;15.50;44.40;;;;;;5033971;28;20049;-72
2022/03/26 08:15:10;;;;;;;28.63;16.77;;;15.60;44.60;;;;;;5035137;28;20028;-75
2022/03/26 08:17:36;;;;;;;26.88;18.20;;;15.60;44.50;;;;;;5035064;28;20032;-69
2022/03/26 08:20:02;;;;;;;21.73;17.20;;;15.70;44.20;;;;;;5034928;28;20029;-69
2022/03/26 08:22:28;;;;;;;23.38;17.33;;;15.70;44.00;;;;;;5034974;28;20029;-71
2022/03/26 08:24:54;;;;;;;27.42;17.35;;;15.70;44.00;;;;;;5034669;28;20029;-70
2022/03/26 08:27:20;;;;;;;28.73;17.88;;;15.70;43.80;;;;;;5035181;28;20032;-68
2022/03/26 08:29:49;;;;;;;27.08;18.83;;;15.70;43.70;;;;;;5035030;28;20071;-72
2022/03/26 08:32:14;;;;;;;26.10;17.38;;;15.70;43.80;;;;;;5035286;28;20036;-71
2022/03/26 08:34:40;;;;;;;24.25;16.65;;;15.80;43.70;;;;;;5035397;28;20025;-69
2022/03/26 08:37:06;;;;;;;23.05;16.88;;;15.80;43.70;;;;;;5034781;28;20025;-72
2022/03/26 08:39:31;;;;;;;24.05;17.00;;;15.70;43.50;;;;;;5035034;28;20025;-71
2022/03/26 08:41:57;;;;;;;27.92;17.27;;;15.70;43.10;;;;;;5034661;28;20135;-73
2022/03/26 08:44:23;;;;;;;27.67;17.10;;;15.80;43.80;;;;;;5034829;28;20025;-72
2022/03/26 08:46:49;;;;;;;24.88;16.52;;;15.90;43.40;;;;;;5034919;28;20061;-70
2022/03/26 08:49:15;;;;;;;22.80;16.63;;;15.90;43.40;;;;;;5034942;28;20049;-72
2022/03/26 08:51:41;;;;;;;25.25;16.35;;;15.90;42.80;;;;;;5034473;28;20382;-71
2022/03/26 08:54:07;;;;;;;24.65;16.38;;;15.90;43.20;;;;;;5034685;28;20032;-72
2022/03/26 08:56:32;;;;;;;24.70;16.83;;;15.90;43.00;;;;;;5034131;28;20030;-71
2022/03/26 08:58:58;;;;;;;25.27;16.10;;;16.00;42.90;;;;;;5034469;28;20068;-73
2022/03/26 09:01:24;;;;;;;24.23;16.92;;;16.00;43.10;;;;;;5039687;28;20041;-71
2022/03/26 09:03:50;;;;;;;21.30;15.13;;;16.10;42.80;;;;;;5034684;28;20029;-70
2022/03/26 09:06:16;;;;;;;29.25;16.42;;;16.10;43.20;;;;;;5034562;28;20030;-70
2022/03/26 09:08:42;;;;;;;22.98;16.48;;;16.20;43.00;;;;;;5034374;28;20053;-72
2022/03/26 09:11:08;;;;;;;29.90;19.02;;;16.30;43.00;;;;;;5034370;28;20053;-71
2022/03/26 09:13:34;;;;;;;31.00;17.48;;;16.30;43.20;;;;;;5034258;28;20383;-71
2022/03/26 09:16:00;;;;;;;25.63;16.25;;;16.40;42.60;;;;;;5034303;28;20022;-71
2022/03/26 09:18:26;;;;;;;28.17;17.73;;;16.50;42.40;;;;;;5034802;28;20030;-71
2022/03/26 09:20:53;;;;;;;26.05;17.15;;;16.50;42.50;;;;;;5033209;28;20022;-73
2022/03/26 09:23:18;;;;;;;25.33;17.67;;;16.60;42.40;;;;;;5034216;28;20135;-73
2022/03/26 09:25:44;;;;;;;24.88;17.55;;;16.70;42.20;;;;;;5034029;28;20025;-74
2022/03/26 09:28:10;;;;;;;23.63;16.10;;;16.70;42.10;;;;;;5033959;28;20144;-72
2022/03/26 09:30:36;;;;;;;24.55;17.67;;;16.80;42.30;;;;;;5034368;28;20097;-73
2022/03/26 09:33:03;;;;;;;26.67;17.52;;;16.90;42.10;;;;;;5034459;28;20124;-75
2022/03/26 09:35:28;;;;;;;22.42;16.33;;;16.90;42.00;;;;;;5034293;28;20025;-72
2022/03/26 09:37:55;;;;;;;24.00;16.45;;;17.00;42.00;;;;;;5034001;28;20029;-69
2022/03/26 09:40:22;;;;;;;27.55;16.52;;;17.00;41.70;;;;;;5033837;28;20056;-71
2022/03/26 09:42:49;;;;;;;24.83;17.35;;;17.10;42.00;;;;;;5034137;28;20060;-75
2022/03/26 09:45:15;;;;;;;35.47;18.42;;;17.10;41.70;;;;;;5033846;28;20489;-72
2022/03/26 09:47:41;;;;;;;23.25;16.00;;;17.20;41.50;;;;;;5033351;28;20025;-72
2022/03/26 09:50:09;;;;;;;22.00;17.33;;;17.30;41.80;;;;;;5034025;28;20017;-73
2022/03/26 09:52:35;;;;;;;23.52;17.30;;;17.40;41.40;;;;;;5047229;28;20036;-69
2022/03/26 09:55:03;;;;;;;24.95;17.13;;;17.50;41.30;;;;;;5037023;28;20029;-69
2022/03/26 09:57:29;;;;;;;23.55;17.77;;;17.60;41.60;;;;;;5032741;28;20059;-69
2022/03/26 09:59:57;;;;;;;26.25;18.75;;;17.70;41.60;;;;;;5033107;28;20025;-67
2022/03/26 10:02:23;;;;;;;22.00;18.15;;;17.70;41.00;;;;;;5033528;28;20059;-66
2022/03/26 10:04:49;;;;;;;23.33;18.15;;;17.80;41.20;;;;;;5032907;28;20033;-69
2022/03/26 10:07:15;;;;;;;40.90;19.55;;;17.90;41.10;;;;;;5033313;28;20029;-68
2022/03/26 10:09:45;;;;;;;27.45;18.05;;;18.00;41.00;;;;;;5032961;28;20022;-69
2022/03/26 10:12:19;;;;;;;26.75;17.67;;;18.10;40.10;;;;;;5033066;28;20110;-69
2022/03/26 10:14:54;;;;;;;31.17;18.75;;;18.30;41.30;;;;;;5031624;28;20485;-69
2022/03/26 10:17:35;;;;;;;27.63;17.60;;;18.40;40.20;;;;;;5033013;28;20021;-67
2022/03/26 10:20:03;;;;;;;27.40;17.90;;;18.50;40.40;;;;;;5032903;28;20022;-70
2022/03/26 10:22:36;;;;;;;27.60;16.15;;;18.60;41.00;;;;;;5033197;28;20032;-69
2022/03/26 10:25:05;;;;;;;24.57;16.50;;;18.70;40.60;;;;;;5033154;28;20076;-69
2022/03/26 10:27:43;;;;;;;27.20;17.92;;;18.80;40.50;;;;;;5033217;28;20359;-68
2022/03/26 10:30:14;;;;;;;23.40;15.25;;;18.80;39.80;;;;;;5031772;28;20454;-69
2022/03/26 10:32:45;;;;;;;21.77;14.98;;;18.90;40.30;;;;;;5032681;28;20029;-69
2022/03/26 10:35:17;;;;;;;23.63;17.33;;;19.00;40.10;;;;;;5032933;28;20142;-67
2022/03/26 10:37:45;;;;;;;21.10;15.48;;;19.00;39.70;;;;;;5032782;28;20018;-67
2022/03/26 10:40:23;;;;;;;23.23;14.70;;;19.20;39.30;;;;;;5033034;28;20463;-69
2022/03/26 10:42:57;;;;;;;20.88;15.75;;;19.30;38.70;;;;;;5032919;28;20125;-69
2022/03/26 10:45:22;;;;;;;;;;;19.40;38.40;;;;;;5033667;28;20514;-69
2022/03/26 10:47:52;;;;;;;20.48;15.65;;;19.50;38.50;;;;;;5032680;28;19909;-70
2022/03/26 10:50:18;;;;;;;22.60;14.77;;;19.70;37.90;;;;;;5032439;28;20030;-68
2022/03/26 10:52:44;;;;;;;22.88;16.30;;;19.80;38.00;;;;;;5032644;28;20498;-67
2022/03/26 10:55:18;;;;;;;22.38;17.08;;;19.80;37.90;;;;;;5032920;28;20513;-67
2022/03/26 10:57:45;;;;;;;;;;;19.80;37.70;;;;;;5033284;28;20092;-68
2022/03/26 11:00:12;;;;;;;19.63;14.40;;;19.90;36.50;;;;;;5035583;28;19909;-68
2022/03/26 11:02:38;;;;;;;26.73;14.85;;;19.80;37.30;;;;;;5052173;28;20067;-68
2022/03/26 11:05:04;;;;;;;18.08;13.52;;;19.80;36.70;;;;;;5052262;28;20025;-70
2022/03/26 11:07:32;;;;;;;19.85;13.18;;;19.90;36.40;;;;;;5052219;28;20025;-70
2022/03/26 11:09:58;;;;;;;20.17;13.25;;;20.00;35.90;;;;;;5052275;28;20096;-71
2022/03/26 11:12:25;;;;;;;20.15;12.52;;;20.00;36.10;;;;;;5052035;28;20059;-71
2022/03/26 11:14:54;;;;;;;30.02;13.73;;;20.10;35.50;;;;;;5052236;28;20026;-73
2022/03/26 11:17:53;;;;;;;18.20;13.52;;;20.20;35.70;;;;;;5055947;28;20028;-73
2022/03/26 11:20:25;;;;;;;18.70;13.45;;;20.40;35.70;;;;;;5055171;28;20032;-73
2022/03/26 11:23:14;;;;;;;25.20;13.48;;;20.60;36.10;;;;;;5056351;28;20488;-69
2022/03/26 11:26:11;;;;;;;22.65;13.07;;;20.70;35.50;;;;;;5056268;28;20021;-72
2022/03/26 11:29:24;;;;;;;23.85;13.95;;;20.80;35.80;;;;;;5056109;28;20025;-70
2022/03/26 11:32:18;;;;;;;19.92;13.80;;;21.00;36.00;;;;;;5014068;28;20121;-71
2022/03/26 11:34:44;;;;;;;21.60;14.27;;;21.10;36.30;;;;;;5055285;28;20118;-71
2022/03/26 11:37:19;;;;;;;20.08;12.98;;;21.20;35.90;;;;;;5055774;28;20025;-71
2022/03/26 11:39:47;;;;;;;18.48;12.10;;;21.30;35.30;;;;;;5055520;28;20025;-71
2022/03/26 11:42:13;;;;;;;19.20;12.73;;;21.40;34.70;;;;;;5054177;28;20400;-72
2022/03/26 11:50:41;;;;;;;20.23;12.82;;;21.40;35.10;;;;;;5055714;28;20028;-70
2022/03/26 11:53:08;;;;;;;18.88;12.65;;;21.40;34.90;;;;;;5055370;28;20040;-71
2022/03/26 11:55:48;;;;;;;21.15;12.32;;;21.50;35.10;;;;;;5055374;28;20021;-72
2022/03/26 11:58:22;;;;;;;19.85;14.07;;;21.60;35.10;;;;;;5055436;28;20525;-70
2022/03/26 12:01:04;;;;;;;;;;;21.60;35.80;;;;;;5055766;28;20040;-71
2022/03/26 12:03:43;;;;;;;18.55;11.85;;;21.50;35.60;;;;;;5055324;28;19905;-70
2022/03/26 12:08:57;;;;;;;17.20;12.07;;;21.50;36.50;;;;;;5055689;28;20032;-70
2022/03/26 12:11:28;;;;;;;12.20;10.02;;;21.40;36.00;;;;;;5055435;28;20020;-71
2022/03/26 12:14:04;;;;;;;18.85;10.95;;;21.40;36.40;;;;;;5055442;28;20028;-71
2022/03/26 12:16:49;;;;;;;15.32;11.25;;;21.40;36.50;;;;;;5055424;28;20086;-70
2022/03/26 12:19:37;;;;;;;19.70;12.15;;;21.40;36.70;;;;;;5055322;28;20442;-71
2022/03/26 12:22:23;;;;;;;16.30;11.05;;;21.40;37.00;;;;;;5053434;28;20485;-76
2022/03/26 12:24:49;;;;;;;13.63;10.55;;;21.50;37.00;;;;;;5064208;28;20075;-71
2022/03/26 12:27:16;;;;;;;18.40;11.70;;;21.50;36.80;;;;;;5037943;28;20059;-74
2022/03/26 12:29:42;;;;;;;16.08;11.75;;;21.60;36.90;;;;;;5034712;28;20022;-74
2022/03/26 12:32:08;;;;;;;16.02;11.52;;;21.60;37.10;;;;;;5034801;28;20041;-73
2022/03/26 12:34:49;;;;;;;19.88;11.55;;;21.70;37.90;;;;;;5033945;28;20045;-72
2022/03/26 12:37:17;;;;;;;19.55;11.93;;;21.70;37.40;;;;;;5035952;28;20032;-74